createdAt,value
2023-05-14T00:18:40.125Z,6.50
2023-05-14T00:21:08.354Z,6.57
2023-05-14T00:23:36.518Z,7.03
2023-05-14T00:26:04.622Z,7.03
2023-05-14T00:28:32.681Z,6.80
2023-05-14T00:31:00.799Z,6.40
2023-05-14T00:33:28.902Z,7.33
2023-05-14T00:35:58.369Z,6.37
2023-05-14T00:38:28.504Z,7.07
2023-05-14T00:40:56.684Z,8.20
2023-05-14T00:43:25.234Z,6.73
2023-05-14T00:45:54.975Z,7.37
2023-05-14T00:48:24.008Z,7.33
2023-05-14T00:50:52.700Z,8.07
2023-05-14T00:53:22.323Z,8.50
2023-05-14T00:55:52.020Z,8.07
2023-05-14T00:58:20.610Z,7.47
2023-05-14T01:00:48.787Z,7.73
2023-05-14T01:03:17.291Z,8.10
2023-05-14T01:05:58.326Z,8.73
2023-05-14T01:08:36.268Z,8.50
2023-05-14T01:11:09.033Z,7.73
2023-05-14T01:13:51.516Z,8.20
2023-05-14T01:16:20.941Z,9.27
2023-05-14T01:18:52.704Z,8.10
2023-05-14T01:21:37.222Z,8.50
2023-05-14T01:24:05.912Z,8.37
2023-05-14T01:26:34.331Z,8.17
2023-05-14T01:29:08.515Z,9.07
2023-05-14T01:31:39.968Z,9.17
2023-05-14T01:34:09.934Z,8.37
2023-05-14T01:36:41.534Z,8.80
2023-05-14T01:39:11.501Z,8.67
2023-05-14T01:41:40.268Z,9.77
2023-05-14T01:44:09.825Z,9.30
2023-05-14T01:46:41.187Z,9.97
2023-05-14T01:49:09.262Z,9.30
2023-05-14T01:51:37.847Z,9.80
2023-05-14T01:54:07.424Z,8.37
2023-05-14T01:56:35.466Z,9.63
2023-05-14T01:59:03.518Z,8.67
2023-05-14T02:01:31.828Z,8.50
2023-05-14T02:04:01.131Z,9.50
2023-05-14T02:06:29.290Z,9.93
2023-05-14T02:08:57.424Z,9.20
2023-05-14T02:11:26.839Z,9.80
2023-05-14T02:13:54.924Z,10.83
2023-05-14T02:16:23.056Z,10.90
2023-05-14T02:18:51.285Z,10.57
2023-05-14T02:21:19.438Z,10.50
2023-05-14T02:23:49.570Z,9.53
2023-05-14T02:26:17.759Z,10.03
2023-05-14T02:28:47.268Z,10.60
2023-05-14T02:31:17.625Z,10.13
2023-05-14T02:33:45.906Z,10.97
2023-05-14T02:36:13.955Z,11.03
2023-05-14T02:38:42.000Z,11.43
2023-05-14T02:41:10.078Z,11.30
2023-05-14T02:43:38.147Z,11.03
2023-05-14T02:46:07.680Z,11.50
2023-05-14T02:48:35.713Z,11.73
2023-05-14T02:51:03.915Z,12.00
2023-05-14T02:53:31.980Z,10.67
2023-05-14T02:56:00.047Z,11.70
2023-05-14T02:58:28.486Z,12.30
2023-05-14T03:06:28.795Z,11.57
2023-05-14T03:08:56.887Z,11.57
2023-05-14T03:11:24.994Z,13.17
2023-05-14T03:13:53.060Z,12.93
2023-05-14T03:16:21.230Z,12.27
2023-05-14T03:18:49.369Z,12.53
2023-05-14T03:21:17.608Z,12.17
2023-05-14T03:23:47.054Z,12.83
2023-05-14T03:26:15.060Z,13.17
2023-05-14T03:28:43.131Z,14.13
2023-05-14T03:31:11.386Z,12.97
2023-05-14T03:33:39.547Z,12.93
2023-05-14T03:36:07.878Z,13.63
2023-05-14T03:38:35.966Z,12.60
2023-05-14T03:41:05.387Z,13.87
2023-05-14T03:43:33.507Z,13.23
2023-05-14T03:46:01.561Z,13.43
2023-05-14T03:48:29.741Z,14.50
2023-05-14T03:50:57.828Z,13.37
2023-05-14T03:53:25.911Z,15.17
2023-05-14T03:55:54.123Z,15.07
2023-05-14T03:58:23.570Z,14.63
2023-05-14T04:00:51.726Z,14.13
2023-05-14T04:03:19.811Z,14.77
2023-05-14T04:05:48.022Z,13.80
2023-05-14T04:08:16.237Z,13.80
2023-05-14T04:10:44.475Z,13.37
2023-05-14T04:13:12.553Z,14.10
2023-05-14T04:15:42.024Z,13.67
2023-05-14T04:18:10.190Z,14.70
2023-05-14T04:20:38.445Z,14.07
2023-05-14T04:23:06.514Z,13.27
2023-05-14T04:25:34.612Z,12.87
2023-05-14T04:28:02.691Z,11.70
2023-05-14T04:30:30.825Z,12.60
2023-05-14T04:33:00.457Z,12.13
2023-05-14T04:35:28.681Z,13.57
2023-05-14T04:37:56.760Z,12.53
2023-05-14T04:40:25.111Z,10.97
2023-05-14T04:42:53.406Z,12.37
2023-05-14T04:45:21.709Z,12.23
2023-05-14T04:47:50.046Z,12.47
2023-05-14T04:50:19.626Z,11.97
2023-05-14T04:52:47.845Z,12.07
2023-05-14T04:55:15.914Z,12.30
2023-05-14T04:57:43.983Z,10.97
2023-05-14T05:00:13.290Z,12.03
2023-05-14T05:05:10.524Z,12.07
2023-05-14T05:07:40.007Z,11.90
2023-05-14T05:10:09.551Z,10.97
2023-05-14T05:12:37.574Z,11.40
2023-05-14T05:15:06.358Z,11.70
2023-05-14T05:17:34.558Z,10.80
2023-05-14T05:20:03.040Z,10.87
2023-05-14T05:22:31.074Z,11.30
2023-05-14T05:25:00.835Z,11.83
2023-05-14T05:27:28.923Z,10.67
2023-05-14T05:29:57.527Z,11.03
2023-05-14T05:32:26.017Z,9.83
2023-05-14T05:34:54.187Z,11.30
2023-05-14T05:37:22.486Z,10.73
2023-05-14T05:39:50.581Z,11.00
2023-05-14T05:42:19.979Z,10.90
2023-05-14T05:44:48.055Z,12.27
2023-05-14T05:47:17.140Z,11.27
2023-05-14T05:49:45.213Z,10.83
2023-05-14T05:52:13.441Z,11.20
2023-05-14T05:55:53.684Z,11.57
2023-05-14T05:58:23.118Z,11.23
2023-05-14T06:00:51.522Z,11.20
2023-05-14T06:03:19.689Z,10.47
2023-05-14T06:05:47.872Z,9.53
2023-05-14T06:08:16.165Z,9.93
2023-05-14T06:10:45.611Z,9.77
2023-05-14T06:13:14.898Z,9.00
2023-05-14T06:15:44.416Z,8.25
2023-05-14T06:18:12.610Z,8.95
2023-05-14T06:20:41.446Z,9.23
2023-05-14T06:23:11.271Z,8.13
2023-05-14T06:25:39.450Z,8.10
2023-05-14T06:28:07.510Z,8.52
2023-05-14T06:30:35.578Z,8.27
2023-05-14T06:33:05.200Z,8.60
2023-05-14T06:35:34.596Z,9.20
2023-05-14T06:38:02.956Z,8.70
2023-05-14T06:40:31.028Z,8.82
2023-05-14T06:42:59.102Z,8.55
2023-05-14T06:45:27.141Z,8.95
2023-05-14T06:47:55.353Z,9.38
2023-05-14T06:50:25.102Z,8.50
2023-05-14T06:52:53.611Z,9.23
2023-05-14T07:02:53.567Z,8.07
2023-05-14T07:05:21.769Z,8.30
2023-05-14T07:07:51.203Z,7.90
2023-05-14T07:10:19.245Z,7.93
2023-05-14T07:12:47.349Z,8.50
2023-05-14T07:15:15.796Z,8.43
2023-05-14T07:17:43.899Z,9.07
2023-05-14T07:20:12.987Z,8.25
2023-05-14T07:22:41.040Z,7.60
2023-05-14T07:25:11.054Z,7.43
2023-05-14T07:27:39.141Z,7.60
2023-05-14T07:30:09.471Z,7.47
2023-05-14T07:32:37.632Z,8.35
2023-05-14T07:35:06.940Z,8.60
2023-05-14T07:37:35.235Z,8.57
2023-05-14T07:40:03.384Z,8.95
2023-05-14T07:42:36.670Z,8.20
2023-05-14T07:45:06.516Z,8.52
2023-05-14T07:47:34.892Z,8.13
2023-05-14T07:50:03.533Z,8.07
2023-05-14T07:52:31.598Z,8.70
2023-05-14T07:55:00.035Z,7.68
2023-05-14T07:57:28.315Z,8.55
2023-05-14T07:59:57.957Z,8.18
2023-05-14T08:02:26.185Z,7.60
2023-05-14T08:04:54.865Z,8.40
2023-05-14T08:07:22.925Z,8.10
2023-05-14T08:09:50.956Z,7.95
2023-05-14T08:12:19.016Z,8.63
2023-05-14T08:14:47.048Z,8.05
2023-05-14T08:17:16.586Z,8.15
2023-05-14T08:19:44.707Z,8.68
2023-05-14T08:22:12.988Z,8.57
2023-05-14T08:24:42.827Z,7.38
2023-05-14T08:27:11.113Z,8.10
2023-05-14T08:29:39.194Z,8.50
2023-05-14T08:32:19.310Z,7.82
2023-05-14T08:34:52.449Z,8.45
2023-05-14T08:37:20.721Z,7.80
2023-05-14T08:39:48.801Z,8.45
2023-05-14T08:46:34.059Z,7.70
2023-05-14T08:49:08.947Z,7.38
2023-05-14T08:51:38.809Z,7.45
2023-05-14T09:01:49.830Z,7.53
2023-05-14T09:04:21.271Z,7.00
2023-05-14T09:06:53.535Z,6.70
2023-05-14T09:09:23.088Z,7.15
2023-05-14T09:11:53.841Z,7.03
2023-05-14T09:14:22.116Z,7.25
2023-05-14T09:16:51.905Z,7.03
2023-05-14T09:20:07.311Z,6.78
2023-05-14T09:22:36.861Z,6.72
2023-05-14T09:25:06.848Z,7.10
2023-05-14T09:27:35.426Z,6.78
2023-05-14T09:30:08.749Z,6.57
2023-05-14T09:32:38.279Z,6.88
2023-05-14T09:35:14.782Z,6.72
2023-05-14T09:37:45.158Z,6.38
2023-05-14T09:40:14.494Z,6.70
2023-05-14T09:47:08.459Z,5.60
2023-05-14T09:49:36.998Z,5.50
2023-05-14T09:52:08.391Z,6.15
2023-05-14T09:54:38.757Z,5.70
2023-05-14T09:57:07.182Z,5.32
2023-05-14T09:59:35.267Z,4.70
2023-05-14T10:02:04.951Z,5.20
2023-05-14T10:04:35.059Z,5.30
2023-05-14T10:07:03.791Z,4.68
2023-05-14T10:09:32.010Z,4.40
2023-05-14T10:12:02.937Z,4.85
2023-05-14T10:14:37.414Z,5.82
2023-05-14T10:17:07.431Z,5.82
2023-05-14T10:19:36.593Z,5.70
2023-05-14T10:22:06.578Z,5.25
2023-05-14T10:24:35.241Z,5.05
2023-05-14T10:27:04.984Z,5.20
2023-05-14T10:29:34.610Z,5.57
2023-05-14T10:32:06.036Z,5.97
2023-05-14T10:34:38.454Z,5.30
2023-05-14T10:37:09.427Z,5.18
2023-05-14T10:39:48.577Z,6.80
2023-05-14T10:42:19.820Z,6.35
2023-05-14T10:44:52.158Z,6.15
2023-05-14T10:47:20.508Z,6.00
2023-05-14T10:49:53.042Z,7.35
2023-05-14T10:52:21.446Z,7.18
2023-05-14T10:54:54.352Z,7.57
2023-05-14T10:57:26.132Z,6.70
2023-05-14T10:59:56.083Z,6.40
2023-05-14T11:02:26.407Z,7.30
2023-05-14T11:05:00.206Z,7.03
2023-05-14T11:07:33.341Z,5.95
2023-05-14T11:10:04.758Z,6.03
2023-05-14T11:12:34.885Z,5.47
2023-05-14T11:15:04.300Z,7.65
2023-05-14T11:17:33.436Z,7.70
2023-05-14T11:20:01.474Z,7.53
2023-05-14T11:22:29.581Z,7.75
2023-05-14T11:24:57.702Z,7.65
2023-05-14T11:47:20.212Z,6.05
2023-05-14T11:49:50.279Z,6.78
2023-05-14T11:52:21.831Z,6.57
2023-05-14T11:54:51.010Z,7.05
2023-05-14T11:57:25.239Z,7.32
2023-05-14T11:59:58.230Z,6.75
2023-05-14T12:02:29.363Z,7.03
2023-05-14T12:04:59.017Z,6.80
2023-05-14T12:07:30.710Z,6.88
2023-05-14T12:10:02.823Z,6.38
2023-05-14T12:12:36.734Z,6.95
2023-05-14T12:15:12.630Z,6.72
2023-05-14T12:17:40.908Z,6.35
2023-05-14T12:20:12.637Z,6.70
2023-05-14T12:22:43.300Z,5.95
2023-05-14T12:29:03.907Z,5.70
2023-05-14T12:31:32.703Z,6.57
2023-05-14T12:34:00.935Z,6.07
2023-05-14T12:44:12.421Z,5.30
2023-05-14T12:46:40.519Z,4.45
2023-05-14T12:53:29.403Z,4.68
2023-05-14T12:55:57.509Z,4.68
2023-05-14T12:58:25.594Z,4.38
2023-05-14T13:00:55.052Z,4.35
2023-05-14T13:03:23.342Z,4.45
2023-05-14T13:05:52.814Z,4.03
2023-05-14T13:08:24.825Z,4.28
2023-05-14T13:18:36.353Z,4.22
2023-05-14T13:21:06.406Z,3.97
2023-05-14T13:23:34.480Z,4.13
2023-05-14T13:26:02.518Z,4.20
2023-05-14T13:28:30.591Z,3.78
2023-05-14T13:39:22.691Z,4.00
2023-05-14T13:41:52.344Z,5.32
2023-05-14T13:44:20.414Z,4.53
2023-05-14T13:46:48.634Z,4.72
2023-05-14T13:49:16.749Z,3.65
2023-05-14T13:51:44.831Z,3.58
2023-05-14T13:54:12.904Z,3.55
2023-05-14T13:56:41.311Z,3.10
2023-05-14T13:59:11.193Z,3.35
2023-05-14T14:01:39.260Z,3.17
2023-05-14T14:04:07.390Z,3.28
2023-05-14T14:06:35.447Z,3.67
2023-05-14T14:09:03.560Z,3.50
2023-05-14T14:11:31.664Z,3.30
2023-05-14T14:14:22.760Z,3.08
2023-05-14T14:16:50.849Z,3.40
2023-05-14T14:31:17.310Z,3.25
2023-05-14T14:33:45.368Z,3.28
2023-05-14T14:36:13.421Z,3.50
2023-05-14T14:38:41.528Z,3.30
2023-05-14T14:41:10.314Z,3.08
2023-05-14T14:43:40.306Z,3.20
2023-05-14T14:46:09.772Z,2.80
2023-05-14T14:48:39.314Z,3.10
2023-05-14T14:51:08.589Z,3.15
2023-05-14T14:53:37.455Z,3.17
2023-05-14T14:56:05.975Z,3.42
2023-05-14T14:58:34.079Z,2.70
2023-05-14T15:01:02.374Z,2.67
2023-05-14T15:03:31.510Z,3.15
2023-05-14T15:06:01.122Z,3.35
2023-05-14T15:08:29.702Z,3.10
2023-05-14T15:10:57.893Z,2.88
2023-05-14T15:13:26.997Z,2.90
2023-05-14T15:15:55.112Z,3.25
2023-05-14T15:18:23.142Z,2.90
2023-05-14T15:20:51.314Z,2.70
2023-05-14T15:23:20.766Z,2.95
2023-05-14T15:25:49.451Z,2.85
2023-05-14T15:28:17.639Z,3.22
2023-05-14T15:30:48.253Z,2.63
2023-05-14T15:33:17.888Z,2.72
2023-05-14T15:35:46.145Z,2.80
2023-05-14T15:38:14.281Z,3.75
2023-05-14T15:40:43.756Z,3.10
2023-05-14T15:43:11.981Z,3.38
2023-05-14T15:45:40.044Z,3.80
2023-05-14T15:48:08.165Z,3.55
2023-05-14T15:50:36.250Z,4.00
2023-05-14T15:53:04.316Z,4.55
2023-05-14T15:55:32.393Z,3.70
2023-05-14T15:58:01.868Z,3.90
2023-05-14T16:00:29.931Z,3.92
2023-05-14T16:02:58.031Z,3.97
2023-05-14T16:05:26.103Z,4.10
2023-05-14T16:07:54.249Z,4.38
2023-05-14T16:10:22.871Z,4.90
2023-05-14T16:12:51.134Z,4.10
2023-05-14T16:15:20.868Z,4.35
2023-05-14T16:17:48.976Z,4.15
2023-05-14T16:20:17.292Z,4.45
2023-05-14T16:22:45.440Z,4.80
2023-05-14T16:25:13.574Z,5.15
2023-05-14T16:27:41.706Z,4.85
2023-05-14T16:30:10.520Z,4.22
2023-05-14T16:32:41.946Z,4.30
2023-05-14T16:35:10.901Z,4.53
2023-05-14T16:37:39.029Z,4.13
2023-05-14T16:40:11.142Z,4.28
2023-05-14T16:42:39.193Z,4.15
2023-05-14T16:45:08.167Z,4.18
2023-05-14T16:47:36.299Z,4.57
2023-05-14T16:50:06.244Z,3.70
2023-05-14T16:52:34.499Z,3.97
2023-05-14T16:55:02.587Z,3.78
2023-05-14T16:57:30.762Z,4.03
2023-05-14T16:59:58.934Z,3.88
2023-05-14T17:02:27.091Z,3.47
2023-05-14T17:04:55.334Z,3.63
2023-05-14T17:07:24.865Z,3.45
2023-05-14T17:13:53.608Z,3.92
2023-05-14T17:16:22.507Z,3.80
2023-05-14T17:18:50.975Z,3.40
2023-05-14T17:21:19.139Z,3.25
2023-05-14T17:23:48.629Z,2.92
2023-05-14T17:26:16.731Z,3.60
2023-05-14T17:28:44.812Z,2.88
2023-05-14T17:31:12.885Z,2.78
2023-05-14T17:33:41.107Z,2.92
2023-05-14T17:36:09.343Z,2.58
2023-05-14T17:38:37.578Z,2.72
2023-05-14T17:41:07.013Z,3.72
2023-05-14T17:43:35.054Z,9.30
2023-05-14T17:46:03.602Z,9.07
2023-05-14T17:48:31.730Z,4.95
2023-05-14T17:50:59.827Z,3.67
2023-05-14T17:53:27.886Z,5.03
2023-05-14T17:55:56.009Z,6.82
2023-05-14T17:58:25.848Z,6.40
2023-05-14T18:00:54.016Z,6.10
2023-05-14T18:03:22.198Z,6.68
2023-05-14T18:05:51.183Z,6.65
2023-05-14T18:08:19.330Z,7.53
2023-05-14T18:10:47.562Z,11.27
2023-05-14T18:13:15.671Z,38.13
2023-05-14T18:15:45.160Z,87.38
2023-05-14T18:18:13.512Z,56.03
2023-05-14T18:20:41.618Z,60.80
2023-05-14T18:23:09.665Z,38.17
2023-05-14T18:25:39.358Z,35.70
2023-05-14T18:28:07.673Z,59.83
2023-05-14T18:30:35.787Z,50.05
2023-05-14T18:37:57.266Z,12.65
2023-05-14T18:40:26.769Z,11.60
2023-05-14T18:42:55.011Z,9.10
2023-05-14T18:45:25.194Z,7.03
2023-05-14T18:47:53.550Z,6.18
2023-05-14T18:50:21.639Z,7.28
2023-05-14T18:52:49.751Z,6.88
2023-05-14T18:55:17.904Z,6.60
2023-05-14T18:57:47.412Z,6.55
2023-05-14T19:00:16.536Z,6.85
2023-05-14T19:02:44.790Z,6.85
2023-05-14T19:05:12.897Z,6.45
2023-05-14T19:07:41.834Z,6.50
2023-05-14T19:10:11.073Z,7.20
2023-05-14T19:12:39.149Z,7.20
2023-05-14T19:15:09.739Z,7.35
2023-05-14T19:17:39.186Z,7.72
2023-05-14T19:20:08.874Z,7.83
2023-05-14T19:22:37.315Z,8.67
2023-05-14T19:25:07.725Z,8.90
2023-05-14T19:27:38.378Z,8.93
2023-05-14T19:30:09.399Z,8.83
2023-05-14T19:32:38.102Z,8.93
2023-05-14T19:35:07.019Z,9.33
2023-05-14T19:37:35.106Z,9.13
2023-05-14T19:40:03.650Z,9.73
2023-05-14T19:42:31.801Z,10.47
2023-05-14T19:44:59.867Z,10.40
2023-05-14T19:47:29.487Z,9.17
2023-05-14T19:49:57.580Z,9.00
2023-05-14T19:52:25.687Z,9.57
2023-05-14T19:54:53.790Z,8.47
2023-05-14T19:57:21.912Z,8.90
2023-05-14T19:59:49.957Z,7.77
2023-05-14T20:02:21.638Z,8.30
2023-05-14T20:04:51.673Z,8.53
2023-05-14T20:07:20.188Z,8.13
2023-05-14T20:09:48.294Z,7.73
2023-05-14T20:12:16.852Z,7.10
2023-05-14T20:14:44.978Z,7.47
2023-05-14T20:17:13.204Z,8.43
2023-05-14T20:19:41.321Z,7.37
2023-05-14T20:22:11.305Z,7.10
2023-05-14T20:24:41.078Z,7.47
2023-05-14T20:27:09.268Z,7.20
2023-05-14T20:29:37.333Z,7.07
2023-05-14T20:32:06.040Z,7.30
2023-05-14T20:34:34.135Z,7.17
2023-05-14T20:37:02.252Z,7.80
2023-05-14T20:39:32.354Z,7.30
2023-05-14T20:42:00.480Z,7.67
2023-05-14T20:44:28.723Z,7.70
2023-05-14T20:46:56.855Z,8.13
2023-05-14T20:49:25.063Z,8.03
2023-05-14T20:51:53.130Z,7.53
2023-05-14T20:54:21.250Z,8.33
2023-05-14T20:56:50.715Z,7.60
2023-05-14T20:59:18.775Z,8.20
2023-05-14T21:01:46.811Z,8.27
2023-05-14T21:04:15.288Z,7.57
2023-05-14T21:06:43.521Z,7.70
2023-05-14T21:09:11.901Z,8.77
2023-05-14T21:11:39.916Z,8.50
2023-05-14T21:14:09.323Z,8.10
2023-05-14T21:16:37.402Z,8.67
2023-05-14T21:19:05.591Z,8.30
2023-05-14T21:21:33.643Z,8.87
2023-05-14T21:24:01.821Z,8.60
2023-05-14T21:26:33.152Z,9.60
2023-05-14T21:29:01.981Z,9.03
2023-05-14T21:31:31.476Z,9.07
2023-05-14T21:33:59.648Z,9.20
2023-05-14T21:36:27.783Z,9.93
2023-05-14T21:38:55.834Z,9.10
2023-05-14T21:41:24.473Z,9.07
2023-05-14T21:43:52.533Z,9.20
2023-05-14T21:46:20.666Z,9.47
2023-05-14T21:48:50.208Z,9.17
2023-05-14T21:51:18.417Z,9.30
2023-05-14T21:53:48.325Z,9.30
2023-05-14T21:56:16.580Z,10.83
2023-05-14T21:58:45.842Z,9.70
2023-05-14T22:01:13.995Z,10.47
2023-05-14T22:03:42.256Z,9.47
2023-05-14T22:06:11.820Z,10.03
2023-05-14T22:08:39.952Z,10.10
2023-05-14T22:11:07.998Z,9.40
2023-05-14T22:13:40.758Z,10.00
2023-05-14T22:16:13.341Z,9.70
2023-05-14T22:18:42.621Z,10.43
2023-05-14T22:21:12.105Z,9.77
2023-05-14T22:23:40.236Z,10.73
2023-05-14T22:26:08.315Z,9.80
2023-05-14T22:28:39.756Z,10.67
2023-05-14T22:31:07.856Z,10.83
2023-05-14T22:33:35.976Z,11.30
2023-05-14T22:36:04.412Z,10.80
2023-05-14T22:38:33.897Z,10.77
2023-05-14T22:41:01.941Z,10.43
2023-05-14T22:43:30.357Z,10.73
2023-05-14T22:45:58.440Z,11.27
2023-05-14T22:48:26.593Z,11.27
2023-05-14T22:50:54.651Z,10.47
2023-05-14T22:53:24.345Z,11.80
2023-05-14T22:55:54.631Z,10.57
2023-05-14T22:58:22.762Z,12.40
2023-05-14T23:00:50.783Z,12.67
2023-05-14T23:03:18.813Z,11.27
2023-05-14T23:05:46.868Z,12.10
2023-05-14T23:08:14.984Z,11.87
2023-05-14T23:10:43.061Z,12.90
2023-05-14T23:13:12.565Z,12.97
2023-05-14T23:15:40.653Z,12.20
2023-05-14T23:18:09.315Z,12.97
2023-05-14T23:25:05.707Z,13.03
2023-05-14T23:27:33.897Z,13.43
2023-05-14T23:30:04.887Z,14.33
2023-05-14T23:32:33.007Z,13.70
2023-05-14T23:35:01.146Z,14.30
2023-05-14T23:37:29.494Z,13.70
2023-05-14T23:39:57.627Z,13.40
2023-05-14T23:42:25.806Z,12.50
2023-05-14T23:44:53.838Z,13.33
2023-05-14T23:47:23.355Z,12.80
2023-05-14T23:49:51.446Z,13.27
2023-05-14T23:52:19.474Z,13.80
2023-05-14T23:54:47.549Z,13.77
2023-05-14T23:57:15.954Z,12.67
2023-05-14T23:59:44.000Z,14.43
